createdAt,value
2017-08-20T00:00:30.311Z,11.63
2017-08-20T00:03:01.313Z,14.13
2017-08-20T00:08:28.154Z,9.37
2017-08-20T00:10:59.907Z,8.20
2017-08-20T00:13:28.458Z,13.93
2017-08-20T00:16:00.004Z,7.80
2017-08-20T00:18:32.571Z,8.17
2017-08-20T00:21:06.493Z,10.20
2017-08-20T00:23:40.840Z,11.23
2017-08-20T00:26:11.590Z,12.13
2017-08-20T00:28:40.087Z,8.67
2017-08-20T00:31:10.749Z,11.80
2017-08-20T00:33:41.774Z,8.70
2017-08-20T00:36:13.048Z,8.47
2017-08-20T00:38:43.308Z,7.83
2017-08-20T00:41:11.352Z,11.33
2017-08-20T00:43:39.819Z,10.67
2017-08-20T00:46:17.628Z,9.43
2017-08-20T00:48:53.790Z,10.50
2017-08-20T00:54:04.579Z,9.40
2017-08-20T00:56:33.164Z,7.70
2017-08-20T00:59:02.757Z,13.13
2017-08-20T01:01:31.561Z,7.60
2017-08-20T01:04:02.071Z,11.87
2017-08-20T01:06:30.904Z,7.33
2017-08-20T01:09:00.306Z,8.50
2017-08-20T01:11:30.605Z,11.00
2017-08-20T01:14:04.374Z,7.70
2017-08-20T01:16:33.092Z,11.10
2017-08-20T01:19:03.107Z,10.30
2017-08-20T01:21:35.882Z,10.30
2017-08-20T01:24:05.436Z,11.57
2017-08-20T01:26:35.308Z,5.67
2017-08-20T01:41:08.798Z,8.43
2017-08-20T01:43:36.655Z,6.03
2017-08-20T01:46:05.865Z,9.50
2017-08-20T01:48:34.068Z,9.33
2017-08-20T01:51:01.658Z,6.77
2017-08-20T01:53:30.590Z,8.13
2017-08-20T01:56:03.564Z,8.13
2017-08-20T01:58:37.829Z,8.33
2017-08-20T02:01:05.960Z,7.03
2017-08-20T02:03:34.657Z,10.93
2017-08-20T02:06:03.941Z,9.57
2017-08-20T02:11:08.218Z,7.40
2017-08-20T02:13:36.713Z,6.90
2017-08-20T02:16:06.732Z,8.43
2017-08-20T02:18:34.756Z,6.70
2017-08-20T02:21:03.236Z,9.20
2017-08-20T02:23:30.780Z,10.80
2017-08-20T02:25:58.454Z,7.23
2017-08-20T02:28:26.908Z,9.57
2017-08-20T02:30:55.734Z,9.67
2017-08-20T02:33:24.658Z,6.83
2017-08-20T02:35:53.395Z,11.83
2017-08-20T02:38:22.279Z,10.80
2017-08-20T02:40:51.331Z,11.30
2017-08-20T02:43:23.042Z,12.63
2017-08-20T02:45:51.223Z,11.20
2017-08-20T02:48:19.504Z,12.03
2017-08-20T02:50:47.572Z,14.13
2017-08-20T02:53:15.946Z,9.07
2017-08-20T02:55:44.532Z,14.27
2017-08-20T02:58:12.417Z,11.17
2017-08-20T03:00:40.605Z,12.47
2017-08-20T03:03:08.543Z,13.67
2017-08-20T03:05:38.496Z,12.20
2017-08-20T03:08:06.769Z,12.90
2017-08-20T03:10:34.388Z,13.37
2017-08-20T03:13:01.944Z,14.47
2017-08-20T03:15:30.219Z,21.37
2017-08-20T03:17:58.372Z,10.57
2017-08-20T03:20:26.193Z,11.80
2017-08-20T03:22:53.824Z,13.20
2017-08-20T03:25:21.530Z,12.70
2017-08-20T03:27:53.421Z,12.27
2017-08-20T03:30:21.473Z,12.30
2017-08-20T03:32:52.440Z,11.17
2017-08-20T03:35:20.801Z,18.67
2017-08-20T03:37:50.488Z,12.97
2017-08-20T03:40:18.351Z,14.33
2017-08-20T03:45:29.039Z,11.00
2017-08-20T03:47:57.994Z,18.43
2017-08-20T03:50:25.556Z,16.00
2017-08-20T03:52:53.302Z,15.90
2017-08-20T03:55:21.135Z,16.00
2017-08-20T03:57:48.651Z,17.03
2017-08-20T04:00:16.564Z,14.60
2017-08-20T04:02:50.467Z,14.90
2017-08-20T04:05:18.671Z,18.20
2017-08-20T04:07:46.381Z,18.27
2017-08-20T04:10:14.079Z,20.17
2017-08-20T04:12:42.581Z,15.53
2017-08-20T04:15:10.911Z,19.33
2017-08-20T04:17:41.078Z,17.20
2017-08-20T04:20:11.536Z,15.03
2017-08-20T04:22:45.752Z,18.53
2017-08-20T04:25:14.591Z,20.20
2017-08-20T04:27:43.332Z,15.00
2017-08-20T04:30:15.860Z,17.93
2017-08-20T04:32:44.081Z,21.20
2017-08-20T04:35:11.686Z,19.67
2017-08-20T04:37:40.460Z,23.43
2017-08-20T04:40:08.921Z,15.33
2017-08-20T04:42:37.595Z,16.40
2017-08-20T04:45:05.298Z,15.57
2017-08-20T04:47:33.223Z,12.53
2017-08-20T04:50:03.190Z,18.47
2017-08-20T04:52:31.070Z,18.60
2017-08-20T04:54:58.802Z,20.03
2017-08-20T04:57:26.469Z,26.17
2017-08-20T04:59:53.987Z,17.97
2017-08-20T05:02:23.540Z,14.80
2017-08-20T05:04:52.831Z,18.13
2017-08-20T05:07:20.564Z,18.97
2017-08-20T05:09:49.773Z,19.87
2017-08-20T05:12:17.709Z,20.60
2017-08-20T05:14:45.414Z,25.40
2017-08-20T05:17:13.263Z,20.47
2017-08-20T05:19:42.157Z,23.00
2017-08-20T05:22:10.909Z,20.07
2017-08-20T05:24:38.742Z,22.83
2017-08-20T05:27:06.419Z,22.43
2017-08-20T05:29:34.365Z,21.40
2017-08-20T05:32:01.948Z,19.00
2017-08-20T05:34:29.786Z,21.17
2017-08-20T05:36:57.549Z,21.63
2017-08-20T05:39:25.224Z,22.77
2017-08-20T05:41:52.971Z,23.97
2017-08-20T05:44:20.613Z,19.83
2017-08-20T05:46:48.124Z,18.40
2017-08-20T05:49:15.703Z,18.40
2017-08-20T05:51:43.763Z,19.47
2017-08-20T05:54:11.315Z,24.00
2017-08-20T05:56:38.874Z,21.83
2017-08-20T05:59:06.393Z,26.17
2017-08-20T06:01:33.967Z,25.70
2017-08-20T06:04:01.664Z,24.60
2017-08-20T06:06:29.299Z,21.43
2017-08-20T06:08:57.179Z,25.90
2017-08-20T06:11:25.471Z,33.63
2017-08-20T06:13:53.240Z,33.17
2017-08-20T06:16:21.156Z,31.17
2017-08-20T06:18:49.213Z,25.73
2017-08-20T06:21:16.776Z,25.77
2017-08-20T06:23:44.695Z,26.03
2017-08-20T06:26:12.520Z,27.13
2017-08-20T06:28:40.217Z,31.30
2017-08-20T06:31:07.987Z,32.07
2017-08-20T06:33:35.700Z,27.77
2017-08-20T06:36:03.408Z,28.60
2017-08-20T06:38:31.400Z,24.77
2017-08-20T06:41:00.222Z,34.90
2017-08-20T06:43:28.057Z,36.87
2017-08-20T06:45:55.760Z,28.77
2017-08-20T06:48:24.160Z,30.57
2017-08-20T06:50:51.784Z,25.50
2017-08-20T06:53:19.583Z,32.13
2017-08-20T06:55:47.172Z,26.43
2017-08-20T06:58:14.726Z,22.10
2017-08-20T07:00:42.500Z,23.77
2017-08-20T07:03:10.154Z,27.47
2017-08-20T07:05:38.072Z,21.03
2017-08-20T07:08:09.330Z,23.73
2017-08-20T07:10:48.303Z,27.17
2017-08-20T07:13:19.311Z,23.70
2017-08-20T07:15:48.235Z,27.93
2017-08-20T07:18:17.105Z,28.80
2017-08-20T07:20:46.686Z,26.27
2017-08-20T07:23:15.876Z,29.50
2017-08-20T07:25:45.426Z,31.83
2017-08-20T07:28:14.504Z,22.43
2017-08-20T07:30:43.691Z,22.37
2017-08-20T07:33:12.409Z,23.90
2017-08-20T07:35:45.449Z,25.63
2017-08-20T07:46:36.360Z,20.53
2017-08-20T07:49:09.767Z,21.33
2017-08-20T07:51:43.567Z,22.13
2017-08-20T07:54:14.788Z,22.60
2017-08-20T07:56:46.851Z,18.40
2017-08-20T07:59:15.694Z,23.37
2017-08-20T08:01:44.103Z,23.63
2017-08-20T08:06:52.839Z,25.07
2017-08-20T08:09:22.350Z,20.10
2017-08-20T08:11:54.151Z,25.03
2017-08-20T08:14:24.921Z,17.87
2017-08-20T08:16:54.441Z,15.80
2017-08-20T08:19:23.462Z,14.80
2017-08-20T08:21:52.660Z,15.83
2017-08-20T08:24:27.730Z,15.57
2017-08-20T08:26:58.170Z,16.77
2017-08-20T08:29:27.780Z,12.17
2017-08-20T08:31:55.780Z,14.67
2017-08-20T08:34:24.379Z,14.13
2017-08-20T08:36:53.817Z,12.97
2017-08-20T08:39:22.576Z,17.70
2017-08-20T08:41:50.970Z,16.23
2017-08-20T08:44:20.133Z,12.03
2017-08-20T08:46:49.595Z,14.30
2017-08-20T08:49:18.095Z,11.43
2017-08-20T08:51:46.248Z,12.03
2017-08-20T08:54:18.077Z,17.50
2017-08-20T08:56:46.696Z,16.97
2017-08-20T08:59:28.334Z,14.50
2017-08-20T09:01:58.390Z,13.13
2017-08-20T09:04:32.858Z,11.90
2017-08-20T09:07:03.530Z,8.80
2017-08-20T09:09:42.891Z,15.83
2017-08-20T09:12:11.348Z,13.37
2017-08-20T09:14:42.005Z,14.27
2017-08-20T09:17:10.165Z,9.83
2017-08-20T09:19:41.803Z,12.40
2017-08-20T09:22:12.182Z,10.20
2017-08-20T09:24:41.164Z,7.90
2017-08-20T09:27:11.663Z,9.40
2017-08-20T09:29:41.996Z,11.00
2017-08-20T09:37:52.102Z,9.73
2017-08-20T09:40:21.593Z,10.63
2017-08-20T09:42:57.735Z,7.27
2017-08-20T09:45:25.593Z,8.37
2017-08-20T09:47:53.599Z,9.80
2017-08-20T09:50:21.541Z,10.70
2017-08-20T09:52:50.411Z,8.97
2017-08-20T09:55:22.757Z,9.07
2017-08-20T09:57:50.749Z,5.77
2017-08-20T10:00:19.710Z,11.10
2017-08-20T10:02:48.265Z,8.20
2017-08-20T10:05:16.871Z,9.27
2017-08-20T10:07:44.895Z,7.10
2017-08-20T10:10:14.006Z,9.87
2017-08-20T10:12:41.680Z,11.17
2017-08-20T10:15:11.783Z,7.27
2017-08-20T10:17:39.954Z,7.30
2017-08-20T10:20:13.407Z,8.53
2017-08-20T10:22:41.439Z,11.30
